Decoded Metar for LHBP (BUDAPEST in HUNGARY) (IATA:BUD) | Meteo·Mobile Aviation Weather
aviador You're here:

LHBP Decoded Metar

BUDAPEST in HUNGARY
Report Time2019-09-21 08:30:00
UTC Time2019-09-21 08:49:14
Flight Rules vfr VFR
WindVRB at 02 kt
Visibility9999 m
Phenomena:N/A
Clouds:Few 043 Hf
Expected CloudBase > 4,400 ft AGL from Temp-Dew spread
CeilingNone
Temp15°C (ISA +1)
Dew Point04°C (48% RH)
AAT13.0°C
QNH1028 hPa
Density Alt361 ft
Elevation607 ft
Report Wrong Elevation
Raw Report
LHBP 210830Z VRB02KT 9999 FEW043 15/04 Q1028 NOSIG=

Extra information for LHBP:More info

Metar Taf Metar & Taf Last 4 Metars F.Rules Stats Wind Profile Meteogram Temp Stats Airport Information Weather charts Add Link Nearby VenuesMetar ALERT Operation Metar Decoded Social comments